Time;durP1;ratioP1;P1;durP2;ratioP2;P2;SDS_P1;SDS_P2;PMS_P1;PMS_P2;Temp;Humidity;BMP_temperature;BMP_pressure;BME280_temperature;BME280_humidity;BME280_pressure;Samples;Min_cycle;Max_cycle;Signal;HPM_P1;HPM_P2
2023/04/20 00:01:04;;;;;;;9.65;3.10;;;7.80;1.00;;;;;;5062624;28;20470;-56
2023/04/20 00:03:31;;;;;;;7.88;2.88;;;7.80;2.70;;;;;;5065911;28;20040;-58
2023/04/20 00:06:00;;;;;;;7.38;2.80;;;8.40;1.00;;;;;;5068827;28;20132;-57
2023/04/20 00:08:27;;;;;;;6.65;2.78;;;7.70;5.50;;;;;;5062010;28;20083;-58
2023/04/20 00:10:52;;;;;;;10.77;2.90;;;7.70;2.20;;;;;;5061774;28;20452;-58
2023/04/20 00:13:18;;;;;;;6.45;3.10;;;7.70;1.00;;;;;;5068384;28;20114;-57
2023/04/20 00:15:43;;;;;;;9.23;2.90;;;7.70;2.00;;;;;;5051866;28;20044;-57
2023/04/20 00:18:09;;;;;;;6.57;3.00;;;7.30;1.00;;;;;;5069525;28;20494;-58
2023/04/20 00:20:35;;;;;;;7.15;3.05;;;7.60;1.00;;;;;;5069421;28;20355;-59
2023/04/20 00:23:01;;;;;;;9.38;3.67;;;7.50;1.00;;;;;;5064891;28;20040;-59
2023/04/20 00:25:27;;;;;;;7.80;2.97;;;7.50;1.00;;;;;;5069826;28;20031;-58
2023/04/20 00:27:52;;;;;;;7.85;3.13;;;7.10;5.20;;;;;;5068899;28;20040;-56
2023/04/20 00:30:18;;;;;;;9.00;3.30;;;7.60;7.30;;;;;;5069694;28;20197;-59
2023/04/20 00:32:44;;;;;;;11.27;3.75;;;7.90;5.40;;;;;;5048717;28;20048;-55
2023/04/20 00:35:09;;;;;;;6.95;2.80;;;7.60;1.00;;;;;;5059992;28;20044;-57
2023/04/20 00:37:35;;;;;;;6.78;2.72;;;7.50;6.00;;;;;;5069181;28;20032;-59
2023/04/20 00:40:01;;;;;;;8.63;3.15;;;7.60;14.00;;;;;;5069162;28;20066;-56
2023/04/20 00:42:26;;;;;;;8.10;2.70;;;7.30;2.00;;;;;;5069170;28;20041;-58
2023/04/20 00:44:52;;;;;;;7.75;2.70;;;7.50;4.10;;;;;;5067594;28;20028;-59
2023/04/20 00:47:17;;;;;;;6.10;2.55;;;7.40;7.80;;;;;;5051077;28;20520;-58
2023/04/20 00:49:43;;;;;;;6.90;2.70;;;7.50;13.70;;;;;;5067683;28;20052;-58
2023/04/20 00:52:09;;;;;;;7.20;2.75;;;7.50;12.90;;;;;;5067535;28;20619;-57
2023/04/20 00:54:35;;;;;;;7.63;2.80;;;7.50;17.30;;;;;;5066169;28;20044;-58
2023/04/20 00:57:02;;;;;;;8.25;2.50;;;7.60;6.50;;;;;;5063589;28;20040;-59
2023/04/20 00:59:28;;;;;;;8.23;2.35;;;7.50;16.50;;;;;;5069322;28;20049;-59
2023/04/20 01:01:53;;;;;;;7.85;2.42;;;7.50;6.90;;;;;;5068820;28;20036;-57
2023/04/20 01:04:19;;;;;;;5.63;2.20;;;7.70;17.80;;;;;;5066894;28;20089;-59
2023/04/20 01:06:45;;;;;;;6.63;2.42;;;7.70;18.10;;;;;;5063896;28;20044;-58
2023/04/20 01:09:14;;;;;;;7.38;2.40;;;7.30;12.90;;;;;;5063357;28;20048;-58
2023/04/20 01:11:39;;;;;;;6.45;2.28;;;7.50;14.90;;;;;;5066841;28;20032;-56
2023/04/20 01:14:05;;;;;;;7.38;2.13;;;7.60;15.20;;;;;;5064296;28;20098;-60
2023/04/20 01:16:33;;;;;;;5.93;1.90;;;7.60;11.10;;;;;;5067227;28;20122;-53
2023/04/20 01:18:59;;;;;;;7.05;2.58;;;7.50;12.20;;;;;;5064120;28;20047;-57
2023/04/20 01:21:24;;;;;;;6.88;2.28;;;7.20;7.20;;;;;;5065972;28;20041;-59
2023/04/20 01:23:50;;;;;;;4.97;2.22;;;7.60;7.00;;;;;;5045987;28;20037;-58
2023/04/20 01:26:18;;;;;;;5.93;2.15;;;7.60;1.10;;;;;;5066925;28;20074;-58
2023/04/20 01:28:45;;;;;;;6.55;2.03;;;;;;;;;;5065029;28;20045;-58
2023/04/20 01:31:11;;;;;;;6.07;2.00;;;7.50;15.60;;;;;;5068129;28;20094;-59
2023/04/20 01:33:38;;;;;;;5.78;2.17;;;7.60;19.60;;;;;;5065956;28;20037;-57
2023/04/20 01:36:05;;;;;;;6.03;1.88;;;7.40;7.40;;;;;;5068101;28;20029;-59
2023/04/20 01:38:33;;;;;;;7.20;1.90;;;7.40;8.50;;;;;;5066723;28;20048;-56
2023/04/20 01:41:00;;;;;;;6.38;1.90;;;7.70;17.80;;;;;;5067633;28;20255;-59
2023/04/20 01:43:26;;;;;;;5.93;2.22;;;8.20;9.30;;;;;;5072889;28;20097;-59
2023/04/20 01:45:52;;;;;;;4.47;1.60;;;7.50;9.90;;;;;;5065229;28;20513;-59
2023/04/20 01:48:18;;;;;;;6.68;2.15;;;7.90;10.50;;;;;;5072439;28;20032;-59
2023/04/20 01:50:43;;;;;;;7.93;2.10;;;7.70;12.90;;;;;;5067912;28;20060;-56
2023/04/20 01:53:09;;;;;;;11.95;2.42;;;7.80;19.10;;;;;;5072516;28;20116;-54
2023/04/20 01:55:35;;;;;;;5.63;2.00;;;7.70;11.20;;;;;;5068005;28;20067;-58
2023/04/20 01:58:00;;;;;;;6.65;2.00;;;7.60;13.10;;;;;;5069432;28;20120;-59
2023/04/20 02:00:26;;;;;;;7.95;2.20;;;8.40;13.60;;;;;;5071388;28;20041;-59
2023/04/20 02:02:52;;;;;;;10.48;2.53;;;8.60;13.50;;;;;;5071078;28;20043;-58
2023/04/20 02:05:17;;;;;;;8.50;2.20;;;8.00;19.20;;;;;;5071193;28;20125;-58
2023/04/20 02:07:43;;;;;;;5.10;1.83;;;8.00;27.50;;;;;;5073983;28;20379;-57
2023/04/20 02:10:09;;;;;;;7.18;2.08;;;8.50;15.40;;;;;;5072990;28;20036;-58
2023/04/20 02:12:35;;;;;;;9.63;2.45;;;8.00;24.70;;;;;;5068255;28;20045;-59
2023/04/20 02:15:01;;;;;;;6.38;2.13;;;7.80;16.70;;;;;;5071148;28;20050;-58
2023/04/20 02:17:26;;;;;;;6.15;1.88;;;7.30;16.20;;;;;;5051213;28;20498;-59
2023/04/20 02:19:52;;;;;;;8.15;2.15;;;7.90;27.50;;;;;;5067967;28;20039;-58
2023/04/20 02:22:18;;;;;;;7.25;2.20;;;7.50;25.60;;;;;;5078360;28;20044;-57
2023/04/20 02:24:44;;;;;;;6.78;2.55;;;7.60;19.60;;;;;;5063778;28;20083;-56
2023/04/20 02:27:10;;;;;;;6.05;2.10;;;7.80;27.30;;;;;;5069786;28;20090;-58
2023/04/20 02:29:35;;;;;;;7.75;2.33;;;7.80;34.10;;;;;;5065903;28;20529;-59
2023/04/20 02:32:01;;;;;;;8.43;2.40;;;7.70;29.90;;;;;;5070916;28;20047;-59
2023/04/20 02:34:27;;;;;;;8.45;2.97;;;7.50;23.50;;;;;;5069204;28;20064;-59
2023/04/20 02:36:52;;;;;;;7.57;2.20;;;7.40;24.80;;;;;;5071591;28;20033;-58
2023/04/20 02:39:18;;;;;;;5.80;2.28;;;7.50;27.60;;;;;;5070423;28;20075;-56
2023/04/20 02:41:44;;;;;;;14.80;3.70;;;;;;;;;;5070488;28;20113;-57
2023/04/20 02:44:10;;;;;;;8.10;2.45;;;7.60;32.60;;;;;;5067613;28;20055;-57
2023/04/20 02:46:35;;;;;;;6.78;2.67;;;7.60;48.40;;;;;;5070262;28;20501;-57
2023/04/20 02:49:02;;;;;;;10.02;3.15;;;8.30;40.30;;;;;;5064046;28;20040;-57
2023/04/20 02:51:28;;;;;;;7.80;2.50;;;7.30;45.40;;;;;;5066230;28;20041;-58
2023/04/20 02:53:54;;;;;;;7.72;2.22;;;7.30;52.80;;;;;;5071613;28;20097;-57
2023/04/20 02:56:20;;;;;;;8.88;2.47;;;7.50;68.90;;;;;;5064489;28;20509;-59
2023/04/20 02:58:47;;;;;;;4.88;2.20;;;7.80;76.90;;;;;;5071319;28;20044;-57
2023/04/20 03:01:13;;;;;;;8.00;2.90;;;7.20;75.00;;;;;;5066173;28;20044;-57
2023/04/20 03:03:39;;;;;;;7.25;2.22;;;;;;;;;;5071557;28;20040;-55
2023/04/20 03:06:05;;;;;;;7.40;2.67;;;;;;;;;;5067828;28;20052;-56
2023/04/20 03:08:31;;;;;;;7.70;2.10;;;7.70;92.70;;;;;;5064723;28;20039;-59
2023/04/20 03:10:56;;;;;;;7.15;3.13;;;7.60;89.10;;;;;;5069275;28;20491;-59
2023/04/20 03:13:22;;;;;;;7.32;2.35;;;7.50;92.00;;;;;;5068760;28;20036;-58
2023/04/20 03:15:48;;;;;;;8.82;2.33;;;7.70;99.50;;;;;;5070878;28;20106;-59
2023/04/20 03:18:13;;;;;;;5.43;2.33;;;7.70;94.70;;;;;;5068425;28;20114;-58
2023/04/20 03:20:39;;;;;;;8.13;2.42;;;7.90;95.70;;;;;;5065716;28;20478;-59
2023/04/20 03:23:05;;;;;;;5.72;2.15;;;7.20;96.20;;;;;;5065371;28;20044;-56
2023/04/20 03:25:31;;;;;;;7.75;2.63;;;7.80;99.90;;;;;;5062465;28;20044;-57
2023/04/20 03:27:56;;;;;;;7.82;2.75;;;7.80;99.90;;;;;;5067201;28;20116;-57
2023/04/20 03:30:22;;;;;;;9.35;2.40;;;7.90;99.90;;;;;;5071475;28;20044;-59
2023/04/20 03:32:48;;;;;;;12.25;3.65;;;7.60;99.90;;;;;;5069538;28;20045;-57
2023/04/20 03:35:13;;;;;;;11.00;2.97;;;7.90;99.90;;;;;;5072375;28;20032;-59
2023/04/20 03:37:39;;;;;;;6.75;2.92;;;7.70;99.90;;;;;;5069344;28;20037;-58
2023/04/20 03:40:06;;;;;;;10.30;3.33;;;;;;;;;;5068069;28;20040;-59
2023/04/20 03:42:31;;;;;;;6.07;2.35;;;8.00;99.90;;;;;;5069895;28;20132;-55
2023/04/20 03:44:57;;;;;;;7.95;2.60;;;7.90;99.90;;;;;;5065079;28;20510;-58
2023/04/20 03:47:23;;;;;;;8.45;2.67;;;8.10;99.90;;;;;;5069297;28;20588;-59
2023/04/20 03:49:48;;;;;;;6.40;2.70;;;7.60;99.90;;;;;;5066444;28;20044;-54
2023/04/20 03:52:14;;;;;;;13.90;4.07;;;8.10;99.90;;;;;;5067732;28;20032;-57
2023/04/20 03:54:39;;;;;;;10.02;2.53;;;8.20;99.90;;;;;;5062347;28;20032;-57
2023/04/20 03:57:05;;;;;;;8.55;2.67;;;7.90;99.90;;;;;;5067390;28;20032;-57
2023/04/20 03:59:30;;;;;;;7.13;2.35;;;8.60;99.40;;;;;;5068790;28;20040;-58
2023/04/20 04:01:57;;;;;;;11.95;2.78;;;;;;;;;;5066837;28;20047;-58
2023/04/20 04:04:22;;;;;;;7.50;2.90;;;7.70;96.20;;;;;;5068921;28;20048;-59
2023/04/20 04:06:48;;;;;;;8.95;2.97;;;7.60;96.00;;;;;;5066641;28;20557;-58
2023/04/20 04:09:14;;;;;;;6.88;2.40;;;8.70;95.10;;;;;;5067111;28;20525;-57
2023/04/20 04:11:39;;;;;;;8.88;2.35;;;7.70;92.00;;;;;;5068359;28;20112;-56
2023/04/20 04:14:05;;;;;;;6.32;2.63;;;8.20;95.10;;;;;;5069541;28;20039;-57
2023/04/20 04:16:31;;;;;;;9.45;2.90;;;7.70;88.30;;;;;;5069506;28;20452;-57
2023/04/20 04:18:57;;;;;;;7.28;2.70;;;8.80;86.10;;;;;;5069924;28;20044;-58
2023/04/20 04:21:22;;;;;;;7.30;2.33;;;8.70;90.10;;;;;;5068598;28;20044;-59
2023/04/20 04:23:48;;;;;;;9.20;2.63;;;8.10;74.30;;;;;;5067123;28;20040;-57
2023/04/20 04:26:14;;;;;;;9.70;2.55;;;8.40;74.60;;;;;;5059234;28;20041;-58
2023/04/20 04:28:40;;;;;;;6.97;2.40;;;8.60;66.50;;;;;;5058557;28;20055;-55
2023/04/20 04:31:08;;;;;;;8.85;2.50;;;8.60;65.40;;;;;;5067227;28;20028;-57
2023/04/20 04:33:34;;;;;;;7.82;2.63;;;8.30;77.30;;;;;;5067934;28;20035;-60
2023/04/20 04:36:00;;;;;;;8.70;3.10;;;8.30;66.90;;;;;;5069067;28;20036;-59
2023/04/20 04:38:26;;;;;;;11.80;2.80;;;8.40;84.70;;;;;;5069057;28;20075;-58
2023/04/20 04:40:52;;;;;;;9.80;2.95;;;8.50;75.40;;;;;;5068249;28;20405;-56
2023/04/20 04:43:19;;;;;;;9.95;3.40;;;8.80;68.20;;;;;;5068038;28;20048;-56
2023/04/20 04:45:44;;;;;;;10.43;3.42;;;8.70;67.20;;;;;;5065199;28;20074;-57
2023/04/20 04:48:11;;;;;;;11.05;3.05;;;8.10;66.60;;;;;;5065492;28;20033;-57
2023/04/20 04:50:40;;;;;;;7.47;3.28;;;8.80;66.90;;;;;;5067435;28;20044;-58
2023/04/20 04:53:06;;;;;;;8.40;3.42;;;8.40;66.20;;;;;;5063525;28;20089;-57
2023/04/20 04:55:32;;;;;;;9.50;3.55;;;8.40;75.90;;;;;;5060265;28;20048;-54
2023/04/20 04:57:57;;;;;;;9.75;2.78;;;8.50;65.40;;;;;;5064080;28;20043;-56
2023/04/20 05:00:24;;;;;;;8.48;2.97;;;7.80;65.80;;;;;;5056900;28;20037;-54
2023/04/20 05:02:51;;;;;;;8.40;3.03;;;7.90;64.30;;;;;;5066244;28;20063;-55
2023/04/20 05:05:18;;;;;;;10.88;2.80;;;8.20;63.50;;;;;;5067662;28;20124;-57
2023/04/20 05:07:43;;;;;;;7.03;2.78;;;8.70;64.70;;;;;;5068226;28;20131;-56
2023/04/20 05:10:09;;;;;;;6.80;2.80;;;8.40;64.20;;;;;;5053837;28;20123;-56
2023/04/20 05:12:35;;;;;;;7.85;3.00;;;8.30;62.10;;;;;;5062237;28;20036;-56
2023/04/20 05:15:01;;;;;;;9.73;2.65;;;8.40;78.20;;;;;;5067219;28;20059;-58
2023/04/20 05:17:27;;;;;;;6.85;2.53;;;8.60;63.20;;;;;;5074564;28;20036;-54
2023/04/20 05:19:52;;;;;;;9.07;2.90;;;8.70;62.80;;;;;;5075722;28;20032;-57
2023/04/20 05:22:18;;;;;;;8.57;2.60;;;8.60;61.70;;;;;;5073806;28;20044;-58
2023/04/20 05:24:44;;;;;;;12.38;2.70;;;9.00;59.20;;;;;;5075148;28;20071;-57
2023/04/20 05:27:10;;;;;;;6.85;3.17;;;8.80;58.30;;;;;;5073669;28;20510;-58
2023/04/20 05:29:36;;;;;;;8.38;2.80;;;8.70;55.70;;;;;;5075355;28;20116;-56
2023/04/20 05:32:02;;;;;;;7.63;2.58;;;;;;;;;;5075264;28;20044;-54
2023/04/20 05:34:28;;;;;;;7.82;2.80;;;8.80;48.50;;;;;;5074608;28;20036;-57
2023/04/20 05:36:55;;;;;;;10.43;3.03;;;;;;;;;;5074303;28;20048;-59
2023/04/20 05:39:22;;;;;;;10.48;2.67;;;8.90;44.70;;;;;;5073130;28;20052;-59
2023/04/20 05:41:47;;;;;;;6.72;3.55;;;9.10;42.50;;;;;;5074260;28;20041;-59
2023/04/20 05:44:13;;;;;;;9.25;2.90;;;9.10;40.70;;;;;;5075000;28;20039;-57
2023/04/20 05:46:38;;;;;;;6.25;2.70;;;8.70;36.80;;;;;;5071601;28;20032;-56
2023/04/20 05:49:05;;;;;;;11.00;2.83;;;9.40;28.90;;;;;;5071355;28;20043;-58
2023/04/20 05:51:32;;;;;;;7.57;2.67;;;9.30;33.70;;;;;;5072104;28;20121;-59
2023/04/20 05:53:59;;;;;;;7.18;2.65;;;9.00;31.70;;;;;;5073760;28;20103;-58
2023/04/20 05:56:25;;;;;;;9.80;2.58;;;9.30;30.20;;;;;;5075101;28;20111;-59
2023/04/20 05:58:51;;;;;;;12.55;3.47;;;9.30;23.90;;;;;;5075552;28;20127;-58
2023/04/20 06:01:17;;;;;;;8.27;2.35;;;9.00;27.20;;;;;;5072834;28;20382;-58
2023/04/20 06:03:43;;;;;;;7.05;2.50;;;9.30;21.20;;;;;;5068022;28;20037;-57
2023/04/20 06:06:08;;;;;;;6.63;2.28;;;9.50;17.70;;;;;;5066790;28;20055;-57
2023/04/20 06:08:34;;;;;;;12.23;2.78;;;9.40;18.20;;;;;;5074641;28;20040;-57
2023/04/20 06:11:00;;;;;;;5.00;1.83;;;9.50;13.10;;;;;;5075291;28;20114;-58
2023/04/20 06:13:25;;;;;;;7.45;2.60;;;9.40;10.00;;;;;;5074801;28;20369;-57
2023/04/20 06:15:52;;;;;;;6.15;1.95;;;9.80;4.80;;;;;;5075000;28;20040;-57
2023/04/20 06:18:18;;;;;;;6.35;2.20;;;9.80;4.10;;;;;;5073443;28;20076;-56
2023/04/20 06:20:44;;;;;;;8.95;3.10;;;9.40;1.00;;;;;;5074298;28;20083;-59
2023/04/20 06:23:10;;;;;;;6.32;2.20;;;9.60;1.00;;;;;;5075089;28;20064;-59
2023/04/20 06:25:36;;;;;;;6.63;2.17;;;9.30;1.00;;;;;;5071704;28;20520;-58
2023/04/20 06:28:05;;;;;;;7.10;2.10;;;9.20;1.00;;;;;;5072063;28;20040;-59
2023/04/20 06:30:34;;;;;;;9.63;2.78;;;;;;;;;;5071735;28;20045;-58
2023/04/20 06:33:01;;;;;;;8.63;2.30;;;9.90;1.00;;;;;;5065122;28;20045;-59
2023/04/20 06:35:27;;;;;;;6.70;2.60;;;9.30;1.00;;;;;;5069497;28;20037;-56
2023/04/20 06:37:56;;;;;;;7.60;2.55;;;9.40;1.00;;;;;;5072104;28;20400;-58
2023/04/20 06:40:22;;;;;;;5.60;2.08;;;10.30;1.00;;;;;;5071171;28;20040;-58
2023/04/20 06:42:47;;;;;;;5.90;2.35;;;9.50;1.00;;;;;;5087429;28;20044;-58
2023/04/20 06:45:13;;;;;;;6.60;1.95;;;9.60;1.00;;;;;;5071132;28;20040;-58
2023/04/20 06:47:39;;;;;;;7.30;2.22;;;9.90;1.00;;;;;;5070703;28;20440;-56
2023/04/20 06:50:08;;;;;;;6.32;2.20;;;9.70;1.00;;;;;;5057951;28;20575;-60
2023/04/20 06:52:38;;;;;;;9.88;2.33;;;9.90;1.00;;;;;;5070475;28;20079;-59
2023/04/20 06:55:04;;;;;;;6.93;2.42;;;10.10;1.00;;;;;;5070178;28;20563;-59
2023/04/20 06:57:29;;;;;;;8.18;2.65;;;9.80;1.00;;;;;;5067961;28;20040;-57
2023/04/20 06:59:56;;;;;;;6.78;2.15;;;10.60;1.00;;;;;;5070376;28;20506;-55
2023/04/20 07:02:22;;;;;;;8.13;2.42;;;9.70;1.00;;;;;;5069730;28;20588;-58
2023/04/20 07:04:48;;;;;;;9.50;2.42;;;10.80;1.00;;;;;;5066281;28;20168;-58
2023/04/20 07:07:13;;;;;;;12.20;2.58;;;10.10;1.00;;;;;;5059973;28;20112;-57
2023/04/20 07:09:39;;;;;;;6.32;2.30;;;10.50;1.00;;;;;;5071092;28;20120;-57
2023/04/20 07:12:05;;;;;;;5.35;2.30;;;10.70;1.00;;;;;;5070068;28;20037;-59
2023/04/20 07:14:30;;;;;;;8.93;2.80;;;10.00;1.00;;;;;;5070663;28;20497;-56
2023/04/20 07:16:56;;;;;;;6.63;2.42;;;10.10;1.00;;;;;;5071474;28;20573;-58
2023/04/20 07:19:22;;;;;;;5.70;2.45;;;9.60;1.00;;;;;;5062452;28;20489;-60
2023/04/20 07:21:47;;;;;;;7.25;2.33;;;10.00;1.00;;;;;;5070144;28;20410;-59
2023/04/20 07:24:13;;;;;;;6.60;2.50;;;10.20;1.00;;;;;;5070761;28;20037;-58
2023/04/20 07:26:39;;;;;;;6.20;2.45;;;9.50;1.00;;;;;;5068636;28;20037;-57
2023/04/20 07:29:04;;;;;;;7.93;2.50;;;9.80;1.00;;;;;;5064264;28;20037;-54
2023/04/20 07:31:30;;;;;;;8.90;2.40;;;9.70;1.00;;;;;;5061211;28;20479;-59
2023/04/20 07:33:56;;;;;;;9.63;2.67;;;10.10;1.00;;;;;;5069478;28;20505;-56
2023/04/20 07:36:21;;;;;;;8.65;3.30;;;9.60;1.00;;;;;;5069848;28;20116;-58
2023/04/20 07:38:48;;;;;;;7.20;2.50;;;9.60;1.00;;;;;;5049791;28;20041;-59
2023/04/20 07:41:14;;;;;;;9.80;2.75;;;9.10;1.00;;;;;;5070285;28;20040;-54
2023/04/20 07:43:40;;;;;;;7.93;2.78;;;9.30;1.00;;;;;;5060828;28;20040;-58
2023/04/20 07:46:06;;;;;;;8.75;2.67;;;9.40;5.70;;;;;;5070290;28;20028;-57
2023/04/20 07:48:36;;;;;;;5.65;2.28;;;;;;;;;;5070138;28;20123;-55
2023/04/20 07:51:02;;;;;;;7.35;3.30;;;9.10;10.40;;;;;;5070468;28;20037;-59
2023/04/20 07:53:30;;;;;;;11.07;3.75;;;9.70;12.70;;;;;;5069927;28;20033;-58
2023/04/20 07:55:56;;;;;;;6.55;3.00;;;9.10;15.60;;;;;;5070111;28;20154;-55
2023/04/20 07:58:22;;;;;;;7.60;3.33;;;9.80;17.70;;;;;;5070087;28;20137;-58
2023/04/20 08:00:47;;;;;;;6.43;2.88;;;9.20;17.80;;;;;;5064838;28;20508;-57
2023/04/20 08:03:14;;;;;;;12.15;3.10;;;10.00;21.70;;;;;;5069095;28;20040;-56
2023/04/20 08:05:40;;;;;;;8.18;3.05;;;10.00;21.30;;;;;;5069664;28;20032;-56
2023/04/20 08:08:06;;;;;;;7.25;2.80;;;9.40;24.20;;;;;;5070383;28;20043;-57
2023/04/20 08:10:32;;;;;;;5.63;2.55;;;9.20;24.80;;;;;;5068357;28;20049;-57
2023/04/20 08:12:58;;;;;;;8.75;3.35;;;9.20;25.90;;;;;;5069773;28;20141;-57
2023/04/20 08:15:26;;;;;;;7.32;2.83;;;9.90;14.30;;;;;;5069252;28;20058;-59
2023/04/20 08:17:52;;;;;;;9.48;3.42;;;9.30;26.60;;;;;;5070018;28;20032;-58
2023/04/20 08:20:18;;;;;;;7.00;2.67;;;9.20;26.60;;;;;;5070002;28;20443;-55
2023/04/20 08:22:44;;;;;;;8.13;3.00;;;9.10;29.10;;;;;;5062947;28;20477;-56
2023/04/20 08:25:10;;;;;;;10.00;2.97;;;9.10;30.30;;;;;;5069813;28;20048;-58
2023/04/20 08:27:36;;;;;;;6.78;2.85;;;;;;;;;;5069749;28;20112;-58
2023/04/20 08:30:03;;;;;;;6.38;2.85;;;10.00;37.10;;;;;;5069575;28;20037;-59
2023/04/20 08:32:29;;;;;;;7.22;2.97;;;9.70;34.80;;;;;;5085340;28;20032;-58
2023/04/20 08:34:54;;;;;;;6.35;3.00;;;9.10;38.90;;;;;;5069802;28;20047;-58
2023/04/20 08:37:20;;;;;;;6.38;2.42;;;9.70;32.40;;;;;;5068032;28;20037;-57
2023/04/20 08:39:46;;;;;;;6.32;2.78;;;9.80;36.60;;;;;;5070099;28;20051;-58
2023/04/20 08:42:11;;;;;;;7.05;2.92;;;9.80;40.60;;;;;;5063758;28;20178;-57
2023/04/20 08:44:37;;;;;;;8.82;2.83;;;9.40;42.40;;;;;;5068864;28;20113;-57
2023/04/20 08:47:03;;;;;;;6.82;2.85;;;10.10;35.90;;;;;;5068406;28;20050;-57
2023/04/20 08:49:29;;;;;;;7.18;3.15;;;9.90;43.10;;;;;;5068123;28;20040;-55
2023/04/20 08:51:55;;;;;;;6.97;2.78;;;9.90;43.50;;;;;;5068103;28;20549;-57
2023/04/20 08:54:20;;;;;;;7.78;2.97;;;10.00;42.70;;;;;;5068781;28;20242;-57
2023/04/20 08:56:47;;;;;;;6.70;2.78;;;9.90;40.80;;;;;;5069619;28;20089;-57
2023/04/20 08:59:16;;;;;;;6.88;3.03;;;10.10;43.20;;;;;;5067800;28;20494;-57
2023/04/20 09:01:43;;;;;;;6.30;2.70;;;9.70;17.50;;;;;;5069014;28;20036;-58
2023/04/20 09:04:15;;;;;;;7.00;2.90;;;10.40;44.00;;;;;;5069278;28;20441;-57
2023/04/20 09:06:46;;;;;;;7.95;3.08;;;10.30;40.20;;;;;;5069055;28;20504;-58
2023/04/20 09:09:14;;;;;;;8.85;3.25;;;10.40;26.90;;;;;;5069461;28;20037;-59
2023/04/20 09:11:39;;;;;;;7.03;2.80;;;10.00;41.40;;;;;;5069255;28;20028;-58
2023/04/20 09:14:15;;;;;;;7.93;3.30;;;9.60;32.50;;;;;;5069010;28;20067;-58
2023/04/20 09:17:03;;;;;;;9.05;3.53;;;10.20;16.40;;;;;;5059811;28;20036;-58
2023/04/20 09:19:30;;;;;;;7.93;3.13;;;10.00;49.20;;;;;;5066175;28;20523;-59
2023/04/20 09:21:58;;;;;;;7.97;3.50;;;10.40;41.90;;;;;;5068981;28;20044;-56
2023/04/20 09:24:30;;;;;;;7.75;3.65;;;10.50;45.10;;;;;;5068430;28;20116;-55
2023/04/20 09:26:56;;;;;;;9.57;3.58;;;9.90;51.80;;;;;;5061969;28;20045;-58
2023/04/20 09:29:24;;;;;;;10.75;3.40;;;10.00;41.70;;;;;;5068918;28;20036;-57
2023/04/20 09:31:51;;;;;;;7.72;3.15;;;10.10;46.10;;;;;;5068751;28;20028;-58
2023/04/20 09:34:18;;;;;;;7.35;3.53;;;10.40;37.30;;;;;;5067303;28;20123;-58
2023/04/20 09:36:49;;;;;;;7.45;2.95;;;10.00;47.30;;;;;;5066951;28;20099;-55
2023/04/20 09:39:19;;;;;;;7.47;3.50;;;11.30;54.40;;;;;;5069025;28;20068;-58
2023/04/20 09:41:46;;;;;;;10.15;3.70;;;10.10;53.10;;;;;;5068502;28;20041;-58
2023/04/20 09:44:14;;;;;;;7.35;3.00;;;10.10;38.90;;;;;;5067406;28;20048;-57
2023/04/20 09:46:41;;;;;;;6.18;3.00;;;10.50;43.20;;;;;;5068516;28;20032;-57
2023/04/20 09:49:09;;;;;;;7.28;3.50;;;10.40;51.40;;;;;;5067139;28;20045;-57
2023/04/20 09:51:37;;;;;;;8.13;3.00;;;10.90;48.60;;;;;;5067029;28;20040;-59
2023/04/20 09:54:05;;;;;;;8.05;3.63;;;10.90;41.90;;;;;;5066987;28;20032;-55
2023/04/20 09:56:31;;;;;;;7.40;3.90;;;10.60;48.40;;;;;;5068509;28;20071;-57
2023/04/20 09:58:58;;;;;;;7.78;3.50;;;10.80;40.20;;;;;;5068755;28;20560;-57
2023/04/20 10:01:24;;;;;;;5.97;3.10;;;11.10;38.90;;;;;;5072019;28;20035;-59
2023/04/20 10:03:54;;;;;;;8.93;3.13;;;10.90;40.50;;;;;;5062924;28;20119;-58
2023/04/20 10:06:27;;;;;;;6.13;3.08;;;11.10;45.70;;;;;;5072077;28;20042;-58
2023/04/20 10:08:54;;;;;;;7.07;3.70;;;11.70;48.10;;;;;;5072393;28;20405;-58
2023/04/20 10:11:34;;;;;;;7.63;3.72;;;11.80;36.80;;;;;;5072123;28;20393;-59
2023/04/20 10:14:24;;;;;;;7.97;3.20;;;12.00;33.70;;;;;;5063777;28;20129;-57
2023/04/20 10:17:10;;;;;;;7.55;3.58;;;11.60;12.80;;;;;;5072168;28;20083;-57
2023/04/20 10:19:39;;;;;;;6.55;3.92;;;11.30;42.00;;;;;;5070357;28;20168;-58
2023/04/20 10:22:06;;;;;;;7.38;3.55;;;11.40;33.60;;;;;;5071178;28;20040;-59
2023/04/20 10:24:32;;;;;;;8.75;3.42;;;11.60;42.20;;;;;;5071025;28;20495;-56
2023/04/20 10:26:58;;;;;;;6.13;3.10;;;11.90;26.60;;;;;;5072080;28;20074;-59
2023/04/20 10:29:27;;;;;;;7.40;3.30;;;12.20;26.30;;;;;;5072071;28;20334;-57
2023/04/20 10:31:56;;;;;;;7.00;3.70;;;;;;;;;;5071812;28;20036;-59
2023/04/20 10:34:33;;;;;;;8.73;3.47;;;12.30;23.70;;;;;;5071623;28;20082;-59
2023/04/20 10:37:10;;;;;;;7.97;3.30;;;11.40;22.10;;;;;;5066325;28;20075;-57
2023/04/20 10:39:43;;;;;;;7.53;3.78;;;12.10;32.20;;;;;;5071399;28;20462;-59
2023/04/20 10:42:09;;;;;;;9.02;4.10;;;11.10;19.20;;;;;;5071822;28;20115;-58
2023/04/20 10:44:35;;;;;;;7.50;3.63;;;11.80;22.40;;;;;;5071115;28;20170;-55
2023/04/20 10:47:01;;;;;;;7.55;3.78;;;11.40;14.00;;;;;;5071880;28;20075;-59
2023/04/20 10:49:28;;;;;;;6.88;3.35;;;11.40;15.60;;;;;;5071112;28;20037;-56
2023/04/20 10:51:55;;;;;;;8.45;3.70;;;12.40;21.10;;;;;;5071437;28;20063;-57
2023/04/20 10:54:21;;;;;;;8.05;4.03;;;11.90;21.20;;;;;;5071291;28;20033;-54
2023/04/20 10:56:49;;;;;;;9.50;3.50;;;11.30;14.10;;;;;;5071361;28;20115;-58
2023/04/20 10:59:22;;;;;;;6.85;3.45;;;11.80;14.20;;;;;;5071371;28;20079;-57
2023/04/20 11:01:49;;;;;;;8.35;3.47;;;11.80;1.40;;;;;;5068125;28;20133;-55
2023/04/20 11:04:15;;;;;;;8.40;3.60;;;12.10;20.50;;;;;;5065855;28;20039;-54
2023/04/20 11:06:47;;;;;;;6.78;3.65;;;11.30;13.10;;;;;;5071184;28;20097;-58
2023/04/20 11:09:25;;;;;;;6.88;3.55;;;11.20;23.20;;;;;;5053128;28;20076;-58
2023/04/20 11:12:02;;;;;;;7.90;3.47;;;11.20;19.80;;;;;;5069660;28;20248;-54
2023/04/20 11:14:30;;;;;;;7.68;4.05;;;11.20;23.60;;;;;;5070513;28;20525;-56
2023/04/20 11:16:55;;;;;;;7.70;3.88;;;11.10;13.30;;;;;;5063033;28;20397;-57
2023/04/20 11:19:23;;;;;;;8.80;3.83;;;11.60;15.30;;;;;;5070996;28;20120;-57
2023/04/20 11:21:48;;;;;;;8.13;3.83;;;10.70;20.30;;;;;;5069388;28;21375;-56
2023/04/20 11:24:19;;;;;;;6.97;3.60;;;12.10;18.70;;;;;;5070641;28;20044;-54
2023/04/20 11:26:48;;;;;;;8.30;4.10;;;11.40;25.10;;;;;;5069205;28;20046;-53
2023/04/20 11:29:33;;;;;;;7.95;4.20;;;11.80;19.00;;;;;;5069099;28;20127;-55
2023/04/20 11:32:05;;;;;;;7.80;4.13;;;11.10;22.00;;;;;;5069965;28;20029;-57
2023/04/20 11:34:33;;;;;;;7.75;4.10;;;10.30;20.40;;;;;;5069950;28;20040;-57
2023/04/20 11:37:12;;;;;;;7.07;3.95;;;10.50;25.00;;;;;;5069609;28;20040;-55
2023/04/20 11:39:38;;;;;;;9.40;4.47;;;11.20;29.70;;;;;;5068971;28;20120;-57
2023/04/20 11:42:05;;;;;;;9.60;4.95;;;10.80;26.10;;;;;;5063581;28;20191;-56
2023/04/20 11:44:30;;;;;;;8.25;4.28;;;10.70;39.20;;;;;;5070092;28;20028;-57
2023/04/20 11:46:56;;;;;;;7.95;3.80;;;10.60;20.90;;;;;;5070570;28;20047;-58
2023/04/20 11:49:26;;;;;;;8.15;4.65;;;10.80;21.30;;;;;;5070024;28;20119;-58
2023/04/20 11:51:52;;;;;;;8.90;4.60;;;10.70;27.70;;;;;;5057641;28;20061;-56
2023/04/20 11:54:18;;;;;;;8.90;4.05;;;11.00;26.80;;;;;;5066859;28;20052;-57
2023/04/20 11:56:44;;;;;;;10.77;4.80;;;10.80;21.40;;;;;;5070076;28;20043;-56
2023/04/20 11:59:12;;;;;;;7.60;4.07;;;10.00;26.80;;;;;;5070244;28;20044;-56
2023/04/20 12:01:38;;;;;;;8.52;4.30;;;10.30;28.10;;;;;;5069693;28;20033;-53
2023/04/20 12:04:04;;;;;;;8.63;4.40;;;10.60;23.90;;;;;;5055800;28;20120;-55
2023/04/20 12:06:33;;;;;;;8.55;4.60;;;11.40;26.30;;;;;;5067630;28;20041;-55
2023/04/20 12:08:59;;;;;;;7.85;4.80;;;11.20;3.90;;;;;;5061882;28;20047;-55
2023/04/20 12:11:25;;;;;;;8.20;4.18;;;12.20;28.00;;;;;;5068804;28;20490;-53
2023/04/20 12:13:52;;;;;;;9.27;4.60;;;11.20;21.50;;;;;;5069555;28;20145;-55
2023/04/20 12:16:18;;;;;;;9.40;5.13;;;12.50;24.90;;;;;;5065556;28;20033;-53
2023/04/20 12:18:43;;;;;;;10.00;4.80;;;11.70;18.40;;;;;;5085040;28;20516;-54
2023/04/20 12:21:09;;;;;;;8.50;4.15;;;12.20;19.00;;;;;;5069346;28;20033;-56
2023/04/20 12:23:38;;;;;;;8.63;4.28;;;;;;;;;;5068097;28;20028;-57
2023/04/20 12:26:04;;;;;;;8.60;4.68;;;12.50;1.00;;;;;;5069737;28;20068;-56
2023/04/20 12:28:31;;;;;;;8.43;4.13;;;12.40;17.30;;;;;;5069723;28;20039;-54
2023/04/20 12:30:57;;;;;;;8.38;4.28;;;12.90;16.40;;;;;;5067687;28;20036;-53
2023/04/20 12:33:23;;;;;;;8.23;4.40;;;12.60;15.40;;;;;;5069391;28;20037;-58
2023/04/20 12:35:49;;;;;;;10.82;5.05;;;12.50;15.30;;;;;;5068579;28;20072;-57
2023/04/20 12:38:14;;;;;;;8.27;4.10;;;13.50;8.20;;;;;;5069484;28;20068;-57
2023/04/20 12:40:40;;;;;;;8.45;4.40;;;14.10;9.20;;;;;;5069431;28;20029;-58
2023/04/20 12:43:06;;;;;;;7.60;4.70;;;14.40;2.70;;;;;;5068295;28;20043;-55
2023/04/20 12:45:32;;;;;;;8.73;4.70;;;14.70;1.00;;;;;;5069044;28;20032;-58
2023/04/20 12:47:58;;;;;;;7.88;4.00;;;14.50;1.00;;;;;;5068886;28;20127;-57
2023/04/20 12:50:24;;;;;;;7.50;4.38;;;14.30;1.00;;;;;;5069527;28;20534;-56
2023/04/20 12:52:57;;;;;;;10.52;4.70;;;15.00;1.00;;;;;;5068852;28;20040;-55
2023/04/20 12:55:24;;;;;;;8.73;4.50;;;15.80;1.00;;;;;;5069111;28;20032;-55